Time;durP1;ratioP1;P1;durP2;ratioP2;P2;SDS_P1;SDS_P2;PMS_P1;PMS_P2;Temp;Humidity;BMP_temperature;BMP_pressure;BME280_temperature;BME280_humidity;BME280_pressure;Samples;Min_cycle;Max_cycle;Signal;HPM_P1;HPM_P2
2022/02/01 00:04:02;;;;;;;14.30;5.10;;;;;;;-0.30;68.28;98334.14;25026;1321;3049266;-71
2022/02/01 00:06:52;;;;;;;15.10;5.40;;;;;;;-0.57;69.45;98334.50;25134;1315;3054915;-71
2022/02/01 00:15:08;;;;;;;15.30;5.20;;;;;;;-0.55;69.36;98338.58;25193;1315;3054923;-72
2022/02/01 00:33:17;;;;;;;14.90;5.30;;;;;;;-0.77;70.60;98327.42;25138;1315;3053493;-75
2022/02/01 00:37:08;;;;;;;10.20;4.00;;;;;;;-0.77;70.42;98321.56;25167;1315;3051616;-72
2022/02/01 00:39:42;;;;;;;11.00;4.60;;;;;;;-0.78;70.98;98316.80;25175;1315;3069556;-69
2022/02/01 00:42:12;;;;;;;12.80;4.00;;;;;;;-0.23;70.70;98320.11;25208;1315;3048584;-70
2022/02/01 00:44:41;;;;;;;13.80;5.00;;;;;;;0.59;67.98;98320.05;25172;1315;3026416;-71
2022/02/01 00:47:11;;;;;;;11.50;4.80;;;;;;;0.37;67.00;98315.02;25151;1315;3026500;-70
2022/02/01 00:49:40;;;;;;;14.20;5.60;;;;;;;0.36;67.47;98318.83;25211;1315;3048843;-72
2022/02/01 00:52:09;;;;;;;17.50;6.90;;;;;;;0.31;67.39;98313.33;25162;1315;3027072;-66
2022/02/01 00:54:40;;;;;;;10.80;5.20;;;;;;;0.09;67.97;98321.91;25151;1315;3069564;-67
2022/02/01 00:57:11;;;;;;;13.50;5.50;;;;;;;0.02;68.26;98329.88;25206;1314;3026881;-70
2022/02/01 00:59:42;;;;;;;15.40;6.40;;;;;;;-0.12;68.34;98337.45;25240;1315;3026725;-72
2022/02/01 01:02:10;;;;;;;13.90;5.70;;;;;;;-0.32;69.41;98324.70;25312;1314;3026226;-68
2022/02/01 01:04:41;;;;;;;14.60;6.10;;;;;;;-0.19;68.53;98327.00;25270;1315;3026807;-65
2022/02/01 01:07:10;;;;;;;14.20;5.90;;;;;;;-0.37;69.60;98338.31;25336;1315;3051557;-73
2022/02/01 01:09:39;;;;;;;12.90;4.50;;;;;;;-0.29;69.27;98336.33;25195;1315;3027214;-71
2022/02/01 01:12:09;;;;;;;19.50;7.10;;;;;;;-0.34;69.42;98337.86;25174;1315;3051437;-70
2022/02/01 01:17:46;;;;;;;19.40;8.30;;;;;;;-0.33;69.68;98342.65;25188;1315;3055361;-76
2022/02/01 01:45:31;;;;;;;16.10;6.40;;;;;;;1.04;65.99;98364.16;25144;1315;3050184;-73
2022/02/01 01:53:35;;;;;;;20.30;9.40;;;;;;;0.57;66.90;98368.88;25135;1315;3069938;-75
2022/02/01 01:56:04;;;;;;;21.20;8.90;;;;;;;0.35;67.54;98372.10;25284;1315;3026078;-76
2022/02/01 01:58:32;;;;;;;23.30;10.70;;;;;;;0.27;67.73;98370.16;25141;1315;3051210;-76
2022/02/01 02:01:14;;;;;;;24.40;9.80;;;;;;;0.10;68.43;98375.22;25155;1315;3026845;-75
2022/02/01 02:03:44;;;;;;;21.80;10.50;;;;;;;-0.07;69.24;98369.98;25126;1315;3053187;-73
2022/02/01 02:06:14;;;;;;;30.40;11.40;;;;;;;-0.18;70.31;98376.57;25173;1315;3026324;-69
2022/02/01 02:08:46;;;;;;;23.50;9.50;;;;;;;-0.33;70.74;98381.39;25176;1314;3026480;-76
2022/02/01 02:11:24;;;;;;;29.60;10.40;;;;;;;-0.27;70.53;98376.84;25173;1315;3028040;-71
2022/02/01 02:16:57;;;;;;;24.70;9.90;;;;;;;-0.55;71.72;98385.52;25165;1315;3055497;-70
2022/02/01 02:19:30;;;;;;;31.90;11.90;;;;;;;-0.45;71.21;98383.63;25171;1315;3056119;-75
2022/02/01 02:22:00;;;;;;;23.20;10.10;;;;;;;-0.57;71.86;98381.80;25109;1315;3026787;-76
2022/02/01 02:24:32;;;;;;;24.10;9.90;;;;;;;-0.58;71.95;98387.16;25168;1315;3027149;-70
2022/02/01 02:27:01;;;;;;;21.10;9.50;;;;;;;-0.61;72.37;98394.84;25167;1315;3028213;-73
2022/02/01 02:29:30;;;;;;;18.20;7.30;;;;;;;-0.04;71.21;98398.27;25150;1315;3026515;-67
2022/02/01 02:32:00;;;;;;;19.20;7.90;;;;;;;0.67;69.17;98399.00;25158;1315;3029159;-71
2022/02/01 02:34:29;;;;;;;22.90;9.50;;;;;;;0.66;68.05;98399.05;25094;1315;3050775;-74
2022/02/01 02:37:01;;;;;;;22.60;10.00;;;;;;;0.44;68.32;98402.09;25144;1315;3030365;-75
2022/02/01 02:39:48;;;;;;;26.20;10.10;;;;;;;0.21;68.89;98406.36;25202;1315;3054757;-73
2022/02/01 02:45:03;;;;;;;19.20;8.70;;;;;;;-0.00;69.98;98403.84;25090;1315;3051062;-76
2022/02/01 02:45:09;;;;;;;26.20;10.20;;;;;;;0.21;68.67;98400.00;25159;1315;3074081;-72
2022/02/01 02:47:39;;;;;;;25.60;11.70;;;;;;;0.03;69.29;98407.50;25142;1314;3026627;-72
2022/02/01 02:50:08;;;;;;;28.40;11.40;;;;;;;-0.26;70.54;98409.88;25182;1315;3027619;-71
2022/02/01 02:52:37;;;;;;;27.00;10.10;;;;;;;-0.41;71.26;98415.70;25111;1315;3069342;-71
2022/02/01 02:55:07;;;;;;;25.60;9.30;;;;;;;-0.48;71.74;98419.35;25222;1315;3028771;-72
2022/02/01 02:57:36;;;;;;;19.90;8.20;;;;;;;-0.59;72.10;98422.30;25362;1313;3053290;-69
2022/02/01 03:00:06;;;;;;;19.00;7.20;;;;;;;-0.62;72.25;98421.01;25396;1315;3026514;-67
2022/02/01 03:02:35;;;;;;;19.60;7.30;;;;;;;-0.61;72.36;98422.70;25375;1315;3052406;-72
2022/02/01 03:05:04;;;;;;;18.70;7.00;;;;;;;-0.55;71.89;98427.66;25304;1315;3026442;-74
2022/02/01 03:07:33;;;;;;;17.90;6.80;;;;;;;-0.62;72.20;98433.55;25221;1315;3051810;-67
2022/02/01 03:10:03;;;;;;;15.20;6.60;;;;;;;-0.70;72.59;98438.46;25183;1315;3026650;-70
2022/02/01 03:13:05;;;;;;;17.40;6.20;;;;;;;-0.63;72.57;98437.21;25255;1315;3058594;-70
2022/02/01 03:16:14;;;;;;;12.70;4.50;;;;;;;0.16;71.01;98437.55;25209;1314;3052995;-72
2022/02/01 03:20:58;;;;;;;16.00;5.30;;;;;;;0.45;68.74;98440.48;25163;1315;3052324;-74
2022/02/01 03:23:28;;;;;;;16.40;5.20;;;;;;;0.22;69.42;98442.33;25271;1315;3026582;-68
2022/02/01 03:25:57;;;;;;;14.50;5.60;;;;;;;0.21;69.49;98441.33;25403;1315;3026619;-70
2022/02/01 03:28:30;;;;;;;14.30;5.00;;;;;;;-0.03;70.04;98447.50;25215;1315;3050924;-72
2022/02/01 03:30:59;;;;;;;13.60;5.70;;;;;;;-0.06;70.09;98447.58;25164;1315;3026777;-76
2022/02/01 03:33:28;;;;;;;15.00;4.80;;;;;;;0.08;69.34;98447.98;25135;1315;3026308;-71
2022/02/01 03:35:57;;;;;;;22.90;7.60;;;;;;;-0.03;69.27;98445.78;25192;1315;3026216;-70
2022/02/01 03:38:26;;;;;;;19.30;6.40;;;;;;;-0.17;69.86;98454.66;25153;1315;3068475;-70
2022/02/01 03:40:55;;;;;;;11.00;4.70;;;;;;;-0.22;70.26;98453.45;25175;1315;3026463;-72
2022/02/01 03:43:24;;;;;;;15.50;6.50;;;;;;;-0.19;69.98;98459.05;25160;1315;3050482;-73
2022/02/01 03:45:53;;;;;;;18.90;6.10;;;;;;;-0.24;69.89;98462.63;25125;1315;3028680;-70
2022/02/01 03:48:22;;;;;;;29.70;8.50;;;;;;;-0.26;70.16;98462.20;25157;1315;3053125;-71
2022/02/01 03:50:51;;;;;;;15.70;6.20;;;;;;;-0.15;69.61;98465.44;25131;1315;3027202;-69
2022/02/01 03:53:20;;;;;;;13.70;6.00;;;;;;;-0.16;69.37;98468.41;25133;1315;3048835;-70
2022/02/01 03:55:49;;;;;;;14.60;5.70;;;;;;;-0.28;69.92;98470.33;25168;1315;3027342;-74
2022/02/01 03:58:19;;;;;;;15.80;6.30;;;;;;;-0.25;69.89;98471.96;25127;1315;3026950;-76
2022/02/01 04:00:47;;;;;;;20.90;6.50;;;;;;;-0.28;70.12;98474.84;25140;1315;3049260;-66
2022/02/01 04:03:16;;;;;;;17.10;6.40;;;;;;;-0.43;70.93;98474.42;25138;1315;3026746;-69
2022/02/01 04:05:45;;;;;;;13.40;6.30;;;;;;;-0.35;70.50;98472.11;25148;1315;3056154;-68
2022/02/01 04:08:17;;;;;;;15.40;5.80;;;;;;;-0.39;70.47;98474.13;25133;1315;3026467;-72
2022/02/01 04:10:49;;;;;;;15.70;6.10;;;;;;;-0.29;70.12;98476.21;25170;1315;3051308;-72
2022/02/01 04:13:18;;;;;;;16.30;6.60;;;;;;;-0.29;70.14;98474.33;25181;1315;3030058;-73
2022/02/01 04:15:50;;;;;;;23.30;7.60;;;;;;;-0.10;69.40;98478.54;25172;1314;3026873;-74
2022/02/01 04:18:19;;;;;;;17.00;6.00;;;;;;;-0.19;69.52;98480.36;25119;1315;3026063;-70
2022/02/01 04:20:49;;;;;;;21.50;7.00;;;;;;;-0.25;69.70;98482.98;25194;1315;3056209;-76
2022/02/01 04:23:18;;;;;;;15.00;7.70;;;;;;;-0.34;69.74;98485.34;25193;1314;3026644;-72
2022/02/01 04:25:47;;;;;;;16.00;7.20;;;;;;;-0.35;70.09;98495.70;25121;1314;3026869;-72
2022/02/01 04:28:19;;;;;;;20.10;7.20;;;;;;;-0.29;69.77;98489.48;25176;1315;3027629;-74
2022/02/01 04:30:48;;;;;;;27.00;8.60;;;;;;;-0.26;69.32;98495.75;25146;1314;3027226;-74
2022/02/01 04:33:17;;;;;;;22.10;8.70;;;;;;;-0.30;69.17;98494.31;25165;1315;3055123;-69
2022/02/01 04:35:46;;;;;;;22.20;9.40;;;;;;;-0.30;69.46;98508.63;25161;1315;3026783;-71
2022/02/01 04:38:15;;;;;;;24.50;8.10;;;;;;;-0.23;69.00;98512.02;25117;1315;3049751;-74
2022/02/01 04:40:44;;;;;;;23.00;7.60;;;;;;;-0.12;68.40;98510.63;25239;1315;3026797;-75
2022/02/01 04:43:13;;;;;;;20.20;8.30;;;;;;;-0.29;68.70;98515.48;25101;1315;3057941;-70
2022/02/01 04:45:42;;;;;;;18.60;7.50;;;;;;;-0.21;68.62;98511.44;25162;1315;3026469;-73
2022/02/01 04:48:11;;;;;;;17.40;6.90;;;;;;;-0.07;68.23;98514.08;25113;1315;3051390;-68
2022/02/01 04:50:40;;;;;;;19.20;6.40;;;;;;;-0.10;68.02;98515.89;25186;1315;3028693;-69
2022/02/01 04:53:09;;;;;;;21.70;7.90;;;;;;;-0.12;68.10;98514.59;25148;1315;3054170;-70
2022/02/01 04:55:54;;;;;;;14.70;6.20;;;;;;;-0.09;68.02;98519.83;25253;1313;3026140;-67
2022/02/01 04:58:26;;;;;;;22.40;8.30;;;;;;;-0.16;67.84;98522.98;25196;1315;3049041;-77
2022/02/01 05:00:55;;;;;;;18.60;7.40;;;;;;;-0.16;68.10;98527.11;25175;1315;3026560;-74
2022/02/01 05:03:24;;;;;;;21.70;7.50;;;;;;;-0.01;67.67;98529.88;25196;1315;3026808;-70
2022/02/01 05:05:53;;;;;;;20.10;7.40;;;;;;;0.05;67.35;98527.48;25127;1315;3048959;-79
2022/02/01 05:08:24;;;;;;;15.40;6.20;;;;;;;-0.03;67.46;98525.32;25213;1315;3030201;-71
2022/02/01 05:10:53;;;;;;;21.20;7.70;;;;;;;0.07;67.20;98522.23;25177;1315;3071094;-73
2022/02/01 05:16:15;;;;;;;21.80;8.20;;;;;;;0.07;66.95;98534.44;25192;1315;3051788;-66
2022/02/01 05:18:50;;;;;;;20.90;7.40;;;;;;;0.05;67.05;98535.20;25138;1313;3069911;-70
2022/02/01 05:23:48;;;;;;;46.10;14.00;;;;;;;0.06;66.88;98550.67;25198;1315;3026374;-79
2022/02/01 05:26:21;;;;;;;49.20;14.50;;;;;;;0.02;67.16;98555.81;25179;1315;3071283;-69
2022/02/01 05:28:51;;;;;;;43.20;14.50;;;;;;;-0.06;67.67;98555.02;25197;1315;3048940;-65
2022/02/01 05:31:21;;;;;;;42.30;13.70;;;;;;;0.00;67.37;98553.46;25159;1315;3027759;-70
2022/02/01 05:33:51;;;;;;;26.40;11.20;;;;;;;-0.05;67.65;98555.70;25136;1315;3026640;-68
2022/02/01 05:36:20;;;;;;;28.60;9.10;;;;;;;0.01;67.33;98557.38;25198;1315;3026836;-75
2022/02/01 05:38:52;;;;;;;21.30;9.00;;;;;;;-0.04;67.26;98562.02;25150;1315;3054785;-71
2022/02/01 05:41:24;;;;;;;13.00;6.70;;;;;;;-0.02;67.33;98565.23;25122;1315;3030014;-70
2022/02/01 05:43:53;;;;;;;19.20;8.80;;;;;;;0.01;67.35;98575.98;25179;1315;3028073;-76
2022/02/01 05:46:23;;;;;;;30.50;12.20;;;;;;;-0.15;67.78;98583.36;25103;1314;3026882;-73
2022/02/01 05:48:52;;;;;;;37.90;17.10;;;;;;;-0.27;69.12;98588.70;25192;1315;3026180;-67
2022/02/01 05:51:23;;;;;;;32.00;15.10;;;;;;;-0.35;70.33;98592.23;25072;1315;3054961;-76
2022/02/01 05:53:52;;;;;;;42.20;14.60;;;;;;;-0.45;71.18;98598.03;25207;1315;3026576;-69
2022/02/01 05:56:20;;;;;;;27.10;12.50;;;;;;;-0.40;71.16;98600.81;25121;1315;3028916;-71
2022/02/01 05:58:49;;;;;;;26.70;11.50;;;;;;;-0.41;71.03;98604.45;25184;1315;3054836;-69
2022/02/01 06:01:18;;;;;;;18.30;8.90;;;;;;;-0.49;71.19;98605.23;25117;1315;3026333;-72
2022/02/01 06:03:47;;;;;;;28.20;11.50;;;;;;;-0.42;70.90;98602.91;25149;1315;3050762;-73
2022/02/01 06:06:16;;;;;;;27.20;13.50;;;;;;;-0.30;70.27;98604.13;25190;1315;3026942;-71
2022/02/01 06:08:45;;;;;;;24.10;11.10;;;;;;;-0.38;69.84;98599.89;25131;1315;3054575;-76
2022/02/01 06:11:14;;;;;;;27.00;11.50;;;;;;;-0.14;69.24;98597.11;25159;1315;3027591;-69
2022/02/01 06:13:44;;;;;;;24.20;11.00;;;;;;;-0.08;68.73;98598.64;25158;1315;3048706;-79
2022/02/01 06:16:13;;;;;;;29.00;12.70;;;;;;;-0.10;68.10;98605.08;25144;1315;3028019;-75
2022/02/01 06:18:42;;;;;;;28.60;12.50;;;;;;;-0.14;68.51;98612.42;25004;1315;3284743;-73
2022/02/01 06:21:11;;;;;;;25.50;11.50;;;;;;;-0.12;68.93;98615.98;25131;1315;3048753;-78
2022/02/01 06:23:40;;;;;;;28.80;12.20;;;;;;;-0.16;68.84;98621.94;25156;1315;3026822;-67
2022/02/01 06:26:08;;;;;;;32.10;11.60;;;;;;;-0.22;69.16;98623.67;25159;1315;3070468;-79
2022/02/01 06:28:38;;;;;;;24.40;10.00;;;;;;;-0.24;69.91;98626.66;25179;1315;3026975;-75
2022/02/01 06:31:07;;;;;;;24.00;9.40;;;;;;;-0.08;69.47;98616.02;25225;1315;3050824;-69
2022/02/01 06:33:36;;;;;;;25.00;10.50;;;;;;;0.04;69.02;98616.68;25121;1315;3027185;-73
2022/02/01 06:36:05;;;;;;;26.70;11.40;;;;;;;0.09;68.74;98618.95;25156;1315;3051224;-71
2022/02/01 06:38:34;;;;;;;21.90;9.20;;;;;;;-0.04;69.53;98619.68;25158;1315;3026945;-72
2022/02/01 06:41:03;;;;;;;26.40;9.60;;;;;;;-0.03;70.06;98622.75;25152;1314;3051823;-76
2022/02/01 06:43:32;;;;;;;31.40;10.50;;;;;;;-0.09;70.36;98618.97;25183;1315;3026373;-76
2022/02/01 06:46:01;;;;;;;24.00;10.40;;;;;;;0.02;70.17;98618.14;25124;1315;3058458;-74
2022/02/01 06:48:30;;;;;;;24.40;9.60;;;;;;;-0.15;70.77;98623.80;25179;1315;3026630;-71
2022/02/01 06:50:59;;;;;;;32.20;11.30;;;;;;;0.12;69.97;98621.79;25130;1315;3050913;-73
2022/02/01 06:53:32;;;;;;;28.00;11.00;;;;;;;0.05;70.18;98627.31;25174;1315;3026488;-70
2022/02/01 06:56:11;;;;;;;29.20;11.30;;;;;;;0.15;70.27;98618.59;25158;1315;3052077;-72
2022/02/01 06:58:41;;;;;;;29.30;10.60;;;;;;;0.27;69.74;98614.59;25195;1315;3055955;-75
2022/02/01 07:01:09;;;;;;;26.90;9.40;;;;;;;0.23;70.59;98616.42;25169;1315;3028796;-69
2022/02/01 07:03:38;;;;;;;25.50;9.30;;;;;;;0.77;69.19;98613.80;25221;1315;3055990;-76
2022/02/01 07:06:12;;;;;;;29.50;9.90;;;;;;;1.23;67.12;98613.55;25179;1315;3026362;-74
2022/02/01 07:08:43;;;;;;;23.20;10.10;;;;;;;1.54;65.82;98617.60;25138;1315;3049536;-70
2022/02/01 07:11:12;;;;;;;22.60;9.80;;;;;;;1.61;64.94;98618.21;25201;1315;3028806;-71
2022/02/01 07:13:41;;;;;;;28.30;10.40;;;;;;;1.38;65.11;98615.95;25148;1315;3026858;-69
2022/02/01 07:16:10;;;;;;;29.00;10.90;;;;;;;1.21;65.52;98617.08;25197;1315;3048065;-72
2022/02/01 07:18:39;;;;;;;25.60;9.60;;;;;;;1.03;65.96;98624.11;25169;1315;3026792;-73
2022/02/01 07:21:08;;;;;;;23.90;9.20;;;;;;;0.86;66.96;98629.53;25295;1315;3069561;-69
2022/02/01 07:23:38;;;;;;;26.00;10.40;;;;;;;0.79;67.02;98637.16;25338;1315;3026198;-70
2022/02/01 07:26:08;;;;;;;19.90;8.70;;;;;;;0.74;67.24;98640.46;25498;1315;3026629;-68
2022/02/01 07:28:37;;;;;;;18.50;7.80;;;;;;;0.88;67.20;98635.15;25460;1315;3025946;-69
2022/02/01 07:31:08;;;;;;;18.70;8.20;;;;;;;0.84;66.80;98639.94;25291;1315;3026259;-71
2022/02/01 07:33:37;;;;;;;23.70;9.00;;;;;;;0.82;66.93;98641.71;25227;1315;3050582;-72
2022/02/01 07:36:06;;;;;;;29.60;12.30;;;;;;;0.97;66.19;98642.94;25176;1315;3027470;-76
2022/02/01 07:38:36;;;;;;;36.60;13.20;;;;;;;1.06;65.40;98644.52;25279;1315;3051152;-74
2022/02/01 07:41:04;;;;;;;34.80;14.90;;;;;;;0.89;65.68;98645.64;25290;1315;3026907;-70
2022/02/01 07:43:33;;;;;;;28.30;11.40;;;;;;;1.02;65.16;98646.37;25388;1315;3070506;-68
2022/02/01 07:46:07;;;;;;;23.00;11.10;;;;;;;1.18;64.36;98651.34;25424;1315;3026865;-70
2022/02/01 07:48:36;;;;;;;33.20;12.30;;;;;;;1.06;63.65;98655.73;25217;1315;3050876;-73
2022/02/01 07:51:05;;;;;;;32.00;12.20;;;;;;;1.05;63.89;98660.79;25149;1315;3026353;-70
2022/02/01 07:53:35;;;;;;;35.40;14.00;;;;;;;1.27;63.73;98663.83;25280;1315;3053455;-69
2022/02/01 07:56:04;;;;;;;28.20;12.10;;;;;;;1.31;63.26;98667.95;25283;1315;3026162;-74
2022/02/01 07:58:33;;;;;;;22.30;10.40;;;;;;;1.50;62.30;98667.98;25203;1315;3052622;-69
2022/02/01 08:01:02;;;;;;;28.80;11.80;;;;;;;1.43;62.25;98676.02;25205;1315;3029203;-79
2022/02/01 08:03:31;;;;;;;26.80;11.30;;;;;;;1.34;62.25;98674.09;25217;1315;3058348;-69
2022/02/01 08:06:00;;;;;;;28.60;11.60;;;;;;;1.43;61.85;98680.99;25148;1315;3026823;-70
2022/02/01 08:08:44;;;;;;;20.40;9.60;;;;;;;1.65;61.48;98682.13;25247;1315;3055598;-71
2022/02/01 08:11:16;;;;;;;34.50;11.60;;;;;;;1.79;61.39;98681.41;25152;1314;3027295;-81
2022/02/01 08:21:46;;;;;;;30.80;11.70;;;;;;;1.82;60.91;98693.21;25097;1314;3052865;-76
2022/02/01 08:24:15;;;;;;;29.20;11.00;;;;;;;1.90;60.96;98694.31;25139;1315;3026467;-71
2022/02/01 08:26:45;;;;;;;25.80;10.30;;;;;;;1.83;60.29;98701.48;25156;1315;3027459;-73
2022/02/01 08:29:15;;;;;;;35.80;11.00;;;;;;;1.79;60.86;98699.04;25128;1315;3052064;-69
2022/02/01 08:31:44;;;;;;;24.70;10.20;;;;;;;1.92;60.02;98705.48;25089;1316;3028563;-70
2022/02/01 08:34:12;;;;;;;30.90;10.50;;;;;;;1.84;60.09;98714.75;25156;1315;3026490;-74
2022/02/01 08:36:41;;;;;;;26.60;9.00;;;;;;;1.85;60.24;98711.26;25150;1315;3052276;-69
2022/02/01 08:39:10;;;;;;;25.10;9.20;;;;;;;1.87;60.33;98717.59;25139;1315;3027004;-76
2022/02/01 08:41:40;;;;;;;22.70;9.50;;;;;;;1.74;60.29;98710.98;25127;1315;3055353;-70
2022/02/01 08:44:09;;;;;;;24.70;10.50;;;;;;;1.86;60.07;98709.16;25110;1315;3026929;-72
2022/02/01 08:46:38;;;;;;;31.60;12.90;;;;;;;1.94;59.27;98710.76;25170;1315;3026666;-68
2022/02/01 08:49:07;;;;;;;27.00;10.10;;;;;;;2.03;59.54;98709.36;25092;1315;3056020;-75
2022/02/01 08:51:41;;;;;;;22.70;9.20;;;;;;;2.02;59.69;98698.88;25117;1315;3027695;-77
2022/02/01 08:54:18;;;;;;;20.50;9.20;;;;;;;1.94;59.16;98695.56;25144;1315;3054376;-74
2022/02/01 08:59:36;;;;;;;28.00;10.30;;;;;;;1.79;60.42;98703.02;25298;1315;3052707;-75
2022/02/01 09:02:05;;;;;;;28.80;10.40;;;;;;;1.93;61.02;98702.65;25212;1313;3027315;-77
2022/02/01 09:04:35;;;;;;;28.50;11.30;;;;;;;1.94;61.54;98702.80;25152;1313;3057131;-75
2022/02/01 09:07:03;;;;;;;33.40;13.40;;;;;;;2.03;60.50;98702.14;25185;1313;3026867;-74
2022/02/01 09:09:33;;;;;;;44.40;15.90;;;;;;;2.02;60.50;98702.17;25126;1315;3054291;-76
2022/02/01 09:12:03;;;;;;;34.10;12.80;;;;;;;2.04;60.65;98703.98;25180;1313;3028810;-73
2022/02/01 09:14:32;;;;;;;31.10;12.00;;;;;;;2.06;60.07;98691.48;25171;1313;3052437;-72
2022/02/01 09:17:03;;;;;;;31.20;11.50;;;;;;;2.20;59.13;98696.13;25165;1313;3026717;-73
2022/02/01 09:19:32;;;;;;;22.90;9.70;;;;;;;2.24;59.16;98697.85;25271;1314;3028086;-79
2022/02/01 09:22:02;;;;;;;25.40;10.10;;;;;;;2.09;58.95;98700.00;25131;1313;3026277;-70
2022/02/01 09:24:31;;;;;;;28.00;9.70;;;;;;;2.12;59.63;98694.71;25190;1313;3050630;-74
2022/02/01 09:27:00;;;;;;;20.50;8.20;;;;;;;2.14;59.09;98696.69;25215;1314;3027211;-71
2022/02/01 09:29:29;;;;;;;24.30;8.00;;;;;;;2.15;58.77;98701.65;25236;1313;3054802;-69
2022/02/01 09:31:59;;;;;;;23.30;9.90;;;;;;;2.09;58.38;98688.95;25251;1313;3027220;-72
2022/02/01 09:34:29;;;;;;;24.80;9.90;;;;;;;2.23;58.36;98690.11;25348;1313;3026264;-73
2022/02/01 09:37:00;;;;;;;27.70;11.50;;;;;;;2.31;57.55;98700.38;25308;1313;3027341;-75
2022/02/01 09:39:29;;;;;;;32.00;9.60;;;;;;;2.36;56.94;98695.33;25256;1313;3027603;-75
2022/02/01 09:42:00;;;;;;;22.50;8.20;;;;;;;2.38;56.86;98696.62;25238;1313;3027470;-75
2022/02/01 09:44:29;;;;;;;20.90;8.40;;;;;;;2.35;55.63;98694.69;25210;1312;3049652;-73
2022/02/01 09:46:58;;;;;;;19.30;7.90;;;;;;;2.53;55.63;98691.72;25172;1313;3028442;-71
2022/02/01 09:49:26;;;;;;;22.40;8.20;;;;;;;2.64;54.94;98687.29;25196;1313;3058716;-75
2022/02/01 09:51:57;;;;;;;21.10;8.50;;;;;;;2.64;54.23;98681.73;25159;1313;3028782;-68
2022/02/01 09:54:28;;;;;;;18.80;7.90;;;;;;;2.73;54.53;98680.70;25171;1313;3049903;-80
2022/02/01 09:57:04;;;;;;;20.50;7.30;;;;;;;3.04;54.20;98672.83;25178;1313;3027579;-77
2022/02/01 09:59:35;;;;;;;19.60;7.20;;;;;;;2.93;54.06;98681.42;25161;1315;3050051;-75
2022/02/01 10:02:09;;;;;;;20.20;6.60;;;;;;;2.97;54.35;98683.52;25192;1313;3026586;-77
2022/02/01 10:04:38;;;;;;;;;;;;;;;2.78;53.84;98689.14;25177;1315;3051526;-72
2022/02/01 10:07:12;;;;;;;17.10;6.80;;;;;;;2.81;54.32;98681.92;25140;1313;3027560;-77
2022/02/01 10:09:58;;;;;;;20.10;6.70;;;;;;;3.25;53.81;98672.14;25158;1313;3053824;-71
2022/02/01 10:12:31;;;;;;;22.80;8.80;;;;;;;3.24;53.76;98665.62;25123;1313;3053971;-76
2022/02/01 10:15:07;;;;;;;20.00;7.90;;;;;;;3.19;54.63;98662.34;25176;1315;3069207;-77
2022/02/01 10:17:57;;;;;;;22.50;8.20;;;;;;;3.06;56.30;98658.23;25129;1313;3051764;-70
2022/02/01 10:20:32;;;;;;;26.50;8.50;;;;;;;3.40;54.95;98655.57;25185;1313;3052738;-73
2022/02/01 10:23:18;;;;;;;16.80;7.30;;;;;;;3.42;55.18;98660.48;25125;1313;3051822;-69
2022/02/01 10:26:09;;;;;;;13.10;6.40;;;;;;;3.54;55.18;98660.79;25143;1315;3056985;-72
2022/02/01 10:31:37;;;;;;;27.40;8.50;;;;;;;3.44;54.88;98656.59;25222;1313;3052835;-67
2022/02/01 10:37:26;;;;;;;14.30;6.30;;;;;;;3.27;55.65;98654.71;25214;1313;3071222;-69
2022/02/01 10:40:07;;;;;;;17.20;6.30;;;;;;;3.37;54.55;98655.17;19733;1315;3072277;-72
2022/02/01 10:42:36;;;;;;;17.60;6.80;;;;;;;3.42;54.48;98650.95;25244;1315;3028683;-78
2022/02/01 10:45:15;;;;;;;16.50;7.30;;;;;;;3.40;55.90;98645.87;15469;1315;3040728;-73
2022/02/01 10:48:27;;;;;;;24.00;8.80;;;;;;;3.38;56.29;98637.61;9814;1322;3069840;-72
2022/02/01 10:51:19;;;;;;;23.50;8.20;;;;;;;3.57;56.20;98633.83;25430;1313;3052874;-77
2022/02/01 10:53:48;;;;;;;22.10;8.50;;;;;;;3.71;55.68;98640.13;25287;1316;3029492;-69
2022/02/01 10:56:19;;;;;;;24.70;9.90;;;;;;;3.65;56.31;98644.91;25153;1313;3027682;-73
2022/02/01 10:58:49;;;;;;;20.10;7.80;;;;;;;3.46;56.96;98648.02;25200;1313;3026504;-76
2022/02/01 11:01:19;;;;;;;18.80;7.90;;;;;;;3.39;57.04;98642.97;25174;1313;3026394;-70
2022/02/01 11:03:49;;;;;;;16.70;7.40;;;;;;;3.62;57.32;98637.10;25184;1313;3026853;-70
2022/02/01 11:06:18;;;;;;;18.70;7.70;;;;;;;3.61;55.93;98634.03;25220;1313;3027668;-70
2022/02/01 11:08:48;;;;;;;20.20;7.60;;;;;;;3.57;56.42;98636.09;25060;1316;3026537;-73
2022/02/01 11:11:18;;;;;;;16.90;7.20;;;;;;;3.59;56.72;98633.41;25063;1318;3026386;-76
2022/02/01 11:13:48;;;;;;;18.50;7.10;;;;;;;3.72;56.55;98629.00;25170;1313;3068027;-73
2022/02/01 11:16:22;;;;;;;17.70;7.30;;;;;;;3.81;55.49;98634.15;25229;1315;3027640;-79
2022/02/01 11:18:56;;;;;;;20.40;6.60;;;;;;;3.83;54.14;98629.70;25134;1316;3051912;-70
2022/02/01 11:21:25;;;;;;;19.80;6.70;;;;;;;3.66;53.86;98634.15;25136;1316;3028298;-75
2022/02/01 11:26:50;;;;;;;14.90;6.00;;;;;;;3.48;53.85;98637.20;25340;1315;3054655;-68
2022/02/01 11:31:57;;;;;;;23.70;6.30;;;;;;;3.26;54.90;98641.77;25257;1315;3056752;-76
2022/02/01 11:34:59;;;;;;;16.50;6.80;;;;;;;3.49;55.21;98640.77;25101;1314;3026540;-72
2022/02/01 11:37:28;;;;;;;25.30;9.30;;;;;;;3.46;55.83;98643.89;25190;1313;3052138;-72
2022/02/01 11:39:58;;;;;;;22.80;8.10;;;;;;;3.53;56.90;98646.64;25136;1314;3026356;-77
2022/02/01 11:42:32;;;;;;;22.60;8.80;;;;;;;3.46;57.41;98640.22;25178;1315;3052802;-74
2022/02/01 11:45:05;;;;;;;;;;;;;;;3.63;57.84;98638.59;25172;1315;3053575;-73
2022/02/01 11:47:35;;;;;;;27.10;9.70;;;;;;;3.67;58.65;98636.32;25157;1313;3026373;-75
2022/02/01 11:50:08;;;;;;;33.60;13.90;;;;;;;3.77;58.58;98639.51;25179;1315;3026806;-71
2022/02/01 11:52:57;;;;;;;31.90;13.50;;;;;;;3.80;59.16;98644.38;25151;1315;3027134;-78
2022/02/01 11:55:28;;;;;;;27.00;10.40;;;;;;;3.97;58.88;98637.88;25242;1313;3055326;-73
2022/02/01 11:58:03;;;;;;;28.00;10.60;;;;;;;4.17;58.45;98634.73;25311;1313;3027160;-76
2022/02/01 12:00:38;;;;;;;20.40;9.10;;;;;;;4.01;57.87;98633.91;25334;1314;3055466;-74
2022/02/01 12:03:10;;;;;;;23.80;9.10;;;;;;;4.10;57.31;98637.46;25214;1313;3049534;-77
2022/02/01 12:05:39;;;;;;;22.20;8.80;;;;;;;4.24;56.13;98639.20;25172;1315;3026163;-76
2022/02/01 12:08:15;;;;;;;30.50;11.20;;;;;;;4.31;56.29;98638.04;25155;1313;3026916;-73
2022/02/01 12:10:45;;;;;;;26.40;10.20;;;;;;;4.41;55.47;98639.45;25122;1315;3052257;-76
2022/02/01 12:13:16;;;;;;;24.10;9.50;;;;;;;4.33;55.42;98642.45;25187;1313;3026788;-80
2022/02/01 12:15:45;;;;;;;19.10;8.20;;;;;;;4.45;54.88;98643.06;25158;1312;3056379;-74
2022/02/01 12:18:35;;;;;;;30.90;11.10;;;;;;;4.36;54.78;98644.73;25237;1313;3026551;-75
2022/02/01 12:21:11;;;;;;;26.40;8.30;;;;;;;4.36;54.10;98643.52;25265;1313;3052982;-70
2022/02/01 12:23:44;;;;;;;23.20;8.10;;;;;;;4.19;52.43;98648.13;25225;1313;3054084;-71
2022/02/01 12:26:40;;;;;;;23.90;7.00;;;;;;;4.03;52.88;98650.95;25149;1315;3068455;-77
2022/02/01 12:29:12;;;;;;;25.80;7.90;;;;;;;3.85;54.01;98654.92;25191;1316;3051816;-73
2022/02/01 12:31:41;;;;;;;22.60;8.60;;;;;;;3.82;54.51;98653.52;25249;1313;3026720;-68
2022/02/01 12:34:13;;;;;;;22.20;7.70;;;;;;;4.10;54.28;98655.86;25389;1313;3026864;-75
2022/02/01 12:36:54;;;;;;;22.10;7.80;;;;;;;3.98;54.25;98657.79;25233;1313;3027073;-69
2022/02/01 12:39:30;;;;;;;21.00;8.30;;;;;;;4.05;54.61;98659.03;25414;1313;3049307;-77
2022/02/01 12:42:27;;;;;;;17.80;7.30;;;;;;;4.01;55.08;98654.88;25249;1313;3052568;-71
2022/02/01 12:47:45;;;;;;;25.50;8.40;;;;;;;3.80;55.53;98653.95;25180;1313;3070676;-79
2022/02/01 12:50:14;;;;;;;25.00;8.90;;;;;;;3.81;56.00;98653.90;25171;1316;3026441;-75
2022/02/01 12:52:43;;;;;;;26.80;8.90;;;;;;;3.79;56.00;98653.14;25176;1315;3053439;-68
2022/02/01 12:55:14;;;;;;;26.20;9.00;;;;;;;3.72;56.73;98658.45;25149;1315;3028239;-71
2022/02/01 12:57:44;;;;;;;30.60;11.70;;;;;;;3.72;57.13;98655.82;25198;1317;3052387;-80
2022/02/01 13:00:15;;;;;;;29.90;11.10;;;;;;;3.78;57.22;98659.06;25183;1313;3027966;-74
2022/02/01 13:02:44;;;;;;;22.40;8.50;;;;;;;3.63;58.02;98654.55;25226;1313;3027426;-77
2022/02/01 13:05:16;;;;;;;26.40;9.30;;;;;;;3.64;58.17;98657.93;25196;1313;3026373;-78
2022/02/01 13:16:45;;;;;;;30.80;10.60;;;;;;;3.98;57.77;98657.47;25175;1315;3050060;-71